sensor_id;sensor_type;location;lat;lon;timestamp;pressure;altitude;pressure_sealevel;temperature;humidity
65716;BME280;63484;52.054;8.518;2023-07-13T00:01:33;100404.63;;;17.24;73.04
65716;BME280;63484;52.054;8.518;2023-07-13T00:06:35;100420.00;;;17.11;73.65
65716;BME280;63484;52.054;8.518;2023-07-13T00:11:38;100418.78;;;17.05;74.50
65716;BME280;63484;52.054;8.518;2023-07-13T00:16:40;100418.91;;;17.04;74.51
65716;BME280;63484;52.054;8.518;2023-07-13T00:21:44;100422.66;;;17.01;74.68
65716;BME280;63484;52.054;8.518;2023-07-13T00:26:49;100417.78;;;16.97;74.46
65716;BME280;63484;52.054;8.518;2023-07-13T00:31:53;100426.84;;;16.94;75.47
65716;BME280;63484;52.054;8.518;2023-07-13T00:36:55;100432.44;;;16.91;75.84
65716;BME280;63484;52.054;8.518;2023-07-13T00:41:58;100428.53;;;17.05;75.57
65716;BME280;63484;52.054;8.518;2023-07-13T00:47:00;100435.78;;;17.22;74.38
65716;BME280;63484;52.054;8.518;2023-07-13T00:52:04;100431.88;;;17.35;74.40
65716;BME280;63484;52.054;8.518;2023-07-13T00:57:12;100416.66;;;17.47;73.45
65716;BME280;63484;52.054;8.518;2023-07-13T01:02:15;100418.59;;;17.45;74.38
65716;BME280;63484;52.054;8.518;2023-07-13T01:07:18;100422.50;;;17.31;74.18
65716;BME280;63484;52.054;8.518;2023-07-13T01:12:21;100425.59;;;17.27;74.99
65716;BME280;63484;52.054;8.518;2023-07-13T01:17:22;100421.25;;;17.26;74.89
65716;BME280;63484;52.054;8.518;2023-07-13T01:22:28;100412.13;;;17.38;75.36
65716;BME280;63484;52.054;8.518;2023-07-13T01:27:31;100413.53;;;17.42;73.42
65716;BME280;63484;52.054;8.518;2023-07-13T01:32:34;100418.56;;;17.54;73.21
65716;BME280;63484;52.054;8.518;2023-07-13T01:37:38;100422.91;;;17.65;72.48
65716;BME280;63484;52.054;8.518;2023-07-13T01:42:40;100418.00;;;17.70;72.70
65716;BME280;63484;52.054;8.518;2023-07-13T01:47:42;100421.72;;;17.77;72.66
65716;BME280;63484;52.054;8.518;2023-07-13T01:52:45;100422.13;;;17.82;72.35
65716;BME280;63484;52.054;8.518;2023-07-13T01:57:48;100428.16;;;17.84;71.59
65716;BME280;63484;52.054;8.518;2023-07-13T02:02:50;100430.81;;;17.84;72.78
65716;BME280;63484;52.054;8.518;2023-07-13T02:07:53;100418.53;;;17.83;72.50
65716;BME280;63484;52.054;8.518;2023-07-13T02:12:55;100423.13;;;17.81;72.98
65716;BME280;63484;52.054;8.518;2023-07-13T02:17:57;100424.44;;;17.67;73.67
65716;BME280;63484;52.054;8.518;2023-07-13T02:23:00;100423.03;;;17.44;74.49
65716;BME280;63484;52.054;8.518;2023-07-13T02:28:02;100419.31;;;17.28;75.16
65716;BME280;63484;52.054;8.518;2023-07-13T02:33:04;100423.94;;;17.16;75.74
65716;BME280;63484;52.054;8.518;2023-07-13T02:38:07;100425.03;;;17.04;75.75
65716;BME280;63484;52.054;8.518;2023-07-13T02:43:09;100418.34;;;17.00;75.29
65716;BME280;63484;52.054;8.518;2023-07-13T02:48:12;100420.00;;;16.92;76.14
65716;BME280;63484;52.054;8.518;2023-07-13T02:53:15;100419.88;;;16.84;76.32
65716;BME280;63484;52.054;8.518;2023-07-13T02:58:17;100431.88;;;16.78;76.91
65716;BME280;63484;52.054;8.518;2023-07-13T03:03:19;100426.97;;;16.74;76.89
65716;BME280;63484;52.054;8.518;2023-07-13T03:08:23;100431.16;;;16.67;77.22
65716;BME280;63484;52.054;8.518;2023-07-13T03:13:26;100438.16;;;16.68;77.55
65716;BME280;63484;52.054;8.518;2023-07-13T03:18:28;100439.69;;;16.60;78.07
65716;BME280;63484;52.054;8.518;2023-07-13T03:23:35;100444.13;;;16.60;77.38
65716;BME280;63484;52.054;8.518;2023-07-13T03:28:37;100441.75;;;16.57;77.31
65716;BME280;63484;52.054;8.518;2023-07-13T03:33:40;100445.13;;;16.59;77.85
65716;BME280;63484;52.054;8.518;2023-07-13T03:38:43;100447.66;;;16.60;78.11
65716;BME280;63484;52.054;8.518;2023-07-13T03:43:45;100444.03;;;16.62;78.83
65716;BME280;63484;52.054;8.518;2023-07-13T03:48:49;100454.25;;;16.66;78.58
65716;BME280;63484;52.054;8.518;2023-07-13T03:53:53;100460.13;;;16.70;77.91
65716;BME280;63484;52.054;8.518;2023-07-13T03:58:57;100461.50;;;16.74;77.11
65716;BME280;63484;52.054;8.518;2023-07-13T04:04:01;100463.34;;;16.83;75.89
65716;BME280;63484;52.054;8.518;2023-07-13T04:09:06;100465.59;;;16.97;74.53
65716;BME280;63484;52.054;8.518;2023-07-13T04:14:08;100468.69;;;17.02;74.51
65716;BME280;63484;52.054;8.518;2023-07-13T04:19:10;100465.03;;;17.12;72.12
65716;BME280;63484;52.054;8.518;2023-07-13T04:24:13;100471.06;;;17.14;71.64
65716;BME280;63484;52.054;8.518;2023-07-13T04:29:17;100477.34;;;17.04;72.22
65716;BME280;63484;52.054;8.518;2023-07-13T04:34:18;100484.63;;;17.02;73.02
65716;BME280;63484;52.054;8.518;2023-07-13T04:39:21;100489.38;;;17.27;71.44
65716;BME280;63484;52.054;8.518;2023-07-13T04:44:23;100482.09;;;17.19;71.18
65716;BME280;63484;52.054;8.518;2023-07-13T04:49:25;100493.59;;;17.20;71.22
65716;BME280;63484;52.054;8.518;2023-07-13T04:54:28;100493.72;;;17.28;70.59
65716;BME280;63484;52.054;8.518;2023-07-13T04:59:30;100490.78;;;17.31;69.72
65716;BME280;63484;52.054;8.518;2023-07-13T05:04:31;100485.19;;;17.34;70.33
65716;BME280;63484;52.054;8.518;2023-07-13T05:09:35;100487.56;;;17.37;69.86
65716;BME280;63484;52.054;8.518;2023-07-13T05:14:36;100489.28;;;17.47;69.64
65716;BME280;63484;52.054;8.518;2023-07-13T05:19:38;100501.72;;;17.56;68.21
65716;BME280;63484;52.054;8.518;2023-07-13T05:24:41;100499.03;;;17.66;68.66
65716;BME280;63484;52.054;8.518;2023-07-13T05:29:43;100500.03;;;17.65;68.33
65716;BME280;63484;52.054;8.518;2023-07-13T05:34:45;100499.75;;;17.68;68.07
65716;BME280;63484;52.054;8.518;2023-07-13T05:39:48;100510.63;;;17.84;67.99
65716;BME280;63484;52.054;8.518;2023-07-13T05:44:50;100510.03;;;17.99;67.13
65716;BME280;63484;52.054;8.518;2023-07-13T05:49:51;100514.59;;;18.17;68.12
65716;BME280;63484;52.054;8.518;2023-07-13T05:54:54;100526.06;;;18.27;67.30
65716;BME280;63484;52.054;8.518;2023-07-13T05:59:56;100520.59;;;18.28;66.66
65716;BME280;63484;52.054;8.518;2023-07-13T06:04:58;100521.41;;;18.48;66.15
65716;BME280;63484;52.054;8.518;2023-07-13T06:10:01;100529.78;;;18.80;64.56
65716;BME280;63484;52.054;8.518;2023-07-13T06:15:03;100528.63;;;18.82;66.05
65716;BME280;63484;52.054;8.518;2023-07-13T06:20:07;100526.13;;;18.98;64.57
65716;BME280;63484;52.054;8.518;2023-07-13T06:25:10;100528.16;;;18.96;64.77
65716;BME280;63484;52.054;8.518;2023-07-13T06:30:12;100540.41;;;19.24;66.00
65716;BME280;63484;52.054;8.518;2023-07-13T06:35:14;100545.03;;;19.32;65.04
65716;BME280;63484;52.054;8.518;2023-07-13T06:40:17;100539.94;;;19.56;64.32
65716;BME280;63484;52.054;8.518;2023-07-13T06:45:19;100539.25;;;20.15;62.75
65716;BME280;63484;52.054;8.518;2023-07-13T06:50:20;100544.47;;;21.49;58.95
65716;BME280;63484;52.054;8.518;2023-07-13T06:55:23;100559.09;;;23.80;51.17
65716;BME280;63484;52.054;8.518;2023-07-13T07:00:25;100566.66;;;26.63;43.21
65716;BME280;63484;52.054;8.518;2023-07-13T07:05:27;100587.25;;;28.63;39.23
65716;BME280;63484;52.054;8.518;2023-07-13T07:10:30;100584.97;;;28.47;38.92
65716;BME280;63484;52.054;8.518;2023-07-13T07:15:35;100582.28;;;28.14;39.36
65716;BME280;63484;52.054;8.518;2023-07-13T07:20:37;100593.47;;;29.78;36.35
65716;BME280;63484;52.054;8.518;2023-07-13T07:25:40;100611.31;;;30.66;34.84
65716;BME280;63484;52.054;8.518;2023-07-13T07:30:42;100596.75;;;29.87;35.86
65716;BME280;63484;52.054;8.518;2023-07-13T07:35:46;100576.44;;;26.37;42.78
65716;BME280;63484;52.054;8.518;2023-07-13T07:40:49;100595.81;;;29.74;36.45
65716;BME280;63484;52.054;8.518;2023-07-13T07:45:53;100587.03;;;29.72;36.24
65716;BME280;63484;52.054;8.518;2023-07-13T07:50:55;100595.84;;;30.24;35.94
65716;BME280;63484;52.054;8.518;2023-07-13T07:55:58;100590.09;;;30.56;34.57
65716;BME280;63484;52.054;8.518;2023-07-13T08:01:04;100584.06;;;30.72;35.23
65716;BME280;63484;52.054;8.518;2023-07-13T08:06:06;100593.34;;;30.22;35.16
65716;BME280;63484;52.054;8.518;2023-07-13T08:11:09;100598.03;;;30.58;34.46
65716;BME280;63484;52.054;8.518;2023-07-13T08:16:14;100589.66;;;28.97;36.69
65716;BME280;63484;52.054;8.518;2023-07-13T08:21:16;100593.53;;;29.96;36.14
65716;BME280;63484;52.054;8.518;2023-07-13T08:26:21;100594.19;;;29.23;36.79
65716;BME280;63484;52.054;8.518;2023-07-13T08:31:23;100592.91;;;28.29;39.47
65716;BME280;63484;52.054;8.518;2023-07-13T08:36:25;100587.31;;;28.17;38.52
65716;BME280;63484;52.054;8.518;2023-07-13T08:41:28;100585.19;;;27.13;42.06
65716;BME280;63484;52.054;8.518;2023-07-13T08:46:35;100587.75;;;26.81;42.58
65716;BME280;63484;52.054;8.518;2023-07-13T08:51:40;100594.75;;;25.99;43.62
65716;BME280;63484;52.054;8.518;2023-07-13T08:56:49;100585.97;;;24.98;45.82
65716;BME280;63484;52.054;8.518;2023-07-13T09:02:20;100575.66;;;24.58;47.09
65716;BME280;63484;52.054;8.518;2023-07-13T09:07:33;100570.38;;;24.94;47.52
65716;BME280;63484;52.054;8.518;2023-07-13T09:12:47;100568.44;;;24.44;46.61
65716;BME280;63484;52.054;8.518;2023-07-13T09:17:53;100571.22;;;24.50;46.61
65716;BME280;63484;52.054;8.518;2023-07-13T09:22:59;100579.00;;;24.31;47.79
65716;BME280;63484;52.054;8.518;2023-07-13T09:28:11;100582.53;;;24.46;47.95
65716;BME280;63484;52.054;8.518;2023-07-13T09:33:14;100572.78;;;24.30;48.56
65716;BME280;63484;52.054;8.518;2023-07-13T09:38:18;100573.81;;;23.70;48.30
65716;BME280;63484;52.054;8.518;2023-07-13T09:43:21;100583.31;;;24.17;47.82
65716;BME280;63484;52.054;8.518;2023-07-13T09:48:23;100585.31;;;24.52;47.87
65716;BME280;63484;52.054;8.518;2023-07-13T09:53:30;100584.72;;;24.13;46.36
65716;BME280;63484;52.054;8.518;2023-07-13T09:58:35;100587.50;;;24.72;45.76
65716;BME280;63484;52.054;8.518;2023-07-13T10:03:37;100585.63;;;25.01;43.46
65716;BME280;63484;52.054;8.518;2023-07-13T10:08:40;100589.69;;;24.83;43.85
65716;BME280;63484;52.054;8.518;2023-07-13T10:13:53;100590.84;;;25.38;44.67
65716;BME280;63484;52.054;8.518;2023-07-13T10:18:59;100585.13;;;25.12;44.29
65716;BME280;63484;52.054;8.518;2023-07-13T10:24:11;100589.88;;;24.67;44.95
65716;BME280;63484;52.054;8.518;2023-07-13T10:29:17;100602.31;;;24.97;44.96
65716;BME280;63484;52.054;8.518;2023-07-13T10:34:20;100605.50;;;25.21;44.20
65716;BME280;63484;52.054;8.518;2023-07-13T10:39:24;100605.84;;;24.16;47.09
65716;BME280;63484;52.054;8.518;2023-07-13T10:44:30;100597.38;;;24.56;45.28
65716;BME280;63484;52.054;8.518;2023-07-13T10:49:33;100593.63;;;24.80;44.37
65716;BME280;63484;52.054;8.518;2023-07-13T10:54:36;100604.50;;;25.37;43.46
65716;BME280;63484;52.054;8.518;2023-07-13T10:59:39;100603.72;;;24.78;44.33
65716;BME280;63484;52.054;8.518;2023-07-13T11:04:46;100611.69;;;25.51;43.48
65716;BME280;63484;52.054;8.518;2023-07-13T11:09:50;100609.53;;;25.82;43.06
65716;BME280;63484;52.054;8.518;2023-07-13T11:15:11;100607.50;;;25.63;42.51
65716;BME280;63484;52.054;8.518;2023-07-13T11:20:22;100604.16;;;26.24;43.41
65716;BME280;63484;52.054;8.518;2023-07-13T11:25:28;100600.91;;;26.35;41.08
65716;BME280;63484;52.054;8.518;2023-07-13T11:30:36;100600.28;;;25.70;43.60
65716;BME280;63484;52.054;8.518;2023-07-13T11:35:51;100601.91;;;24.56;45.50
65716;BME280;63484;52.054;8.518;2023-07-13T11:40:55;100611.72;;;23.97;47.34
65716;BME280;63484;52.054;8.518;2023-07-13T11:46:14;100592.38;;;24.97;47.39
65716;BME280;63484;52.054;8.518;2023-07-13T11:51:20;100602.81;;;25.21;43.44
65716;BME280;63484;52.054;8.518;2023-07-13T11:56:24;100610.81;;;25.65;42.75
65716;BME280;63484;52.054;8.518;2023-07-13T12:01:30;100603.97;;;25.83;42.29
65716;BME280;63484;52.054;8.518;2023-07-13T12:06:34;100600.00;;;26.01;41.20
65716;BME280;63484;52.054;8.518;2023-07-13T12:11:40;100602.03;;;25.99;41.08
65716;BME280;63484;52.054;8.518;2023-07-13T12:16:46;100598.94;;;25.24;42.50
65716;BME280;63484;52.054;8.518;2023-07-13T12:21:50;100590.66;;;24.23;45.09
65716;BME280;63484;52.054;8.518;2023-07-13T12:26:58;100594.34;;;24.74;43.97
65716;BME280;63484;52.054;8.518;2023-07-13T12:32:08;100590.84;;;24.74;43.81
65716;BME280;63484;52.054;8.518;2023-07-13T12:37:12;100604.31;;;25.24;43.54
65716;BME280;63484;52.054;8.518;2023-07-13T12:42:20;100607.59;;;25.97;39.57
65716;BME280;63484;52.054;8.518;2023-07-13T12:47:25;100611.59;;;25.59;39.91
65716;BME280;63484;52.054;8.518;2023-07-13T12:52:29;100605.47;;;25.50;40.57
65716;BME280;63484;52.054;8.518;2023-07-13T12:57:39;100607.00;;;25.24;40.89
65716;BME280;63484;52.054;8.518;2023-07-13T13:02:42;100605.47;;;24.86;42.51
65716;BME280;63484;52.054;8.518;2023-07-13T13:07:44;100601.03;;;24.78;42.95
65716;BME280;63484;52.054;8.518;2023-07-13T13:12:47;100608.03;;;25.23;41.10
65716;BME280;63484;52.054;8.518;2023-07-13T13:17:50;100605.16;;;25.60;40.47
65716;BME280;63484;52.054;8.518;2023-07-13T13:22:54;100625.81;;;25.53;42.71
65716;BME280;63484;52.054;8.518;2023-07-13T13:27:56;100627.47;;;25.04;42.39
65716;BME280;63484;52.054;8.518;2023-07-13T13:33:02;100629.16;;;24.38;46.78
65716;BME280;63484;52.054;8.518;2023-07-13T13:38:04;100632.69;;;24.02;44.74
65716;BME280;63484;52.054;8.518;2023-07-13T13:43:16;100665.28;;;22.83;49.64
65716;BME280;63484;52.054;8.518;2023-07-13T13:48:21;100696.03;;;21.66;58.98
65716;BME280;63484;52.054;8.518;2023-07-13T13:53:30;100719.25;;;19.95;68.53
65716;BME280;63484;52.054;8.518;2023-07-13T13:58:34;100715.84;;;19.58;78.72
65716;BME280;63484;52.054;8.518;2023-07-13T14:03:37;100700.06;;;19.47;80.59
65716;BME280;63484;52.054;8.518;2023-07-13T14:08:39;100683.72;;;19.77;82.88
65716;BME280;63484;52.054;8.518;2023-07-13T14:13:44;100687.63;;;20.00;76.84
65716;BME280;63484;52.054;8.518;2023-07-13T14:18:51;100694.34;;;20.21;75.43
65716;BME280;63484;52.054;8.518;2023-07-13T14:23:53;100711.47;;;20.54;78.81
65716;BME280;63484;52.054;8.518;2023-07-13T14:28:56;100726.78;;;20.44;77.77
65716;BME280;63484;52.054;8.518;2023-07-13T14:34:00;100728.47;;;20.27;80.97
65716;BME280;63484;52.054;8.518;2023-07-13T14:39:11;100727.28;;;20.12;76.55
65716;BME280;63484;52.054;8.518;2023-07-13T14:44:14;100747.91;;;20.37;74.98
65716;BME280;63484;52.054;8.518;2023-07-13T14:49:24;100772.84;;;19.66;71.00
65716;BME280;63484;52.054;8.518;2023-07-13T14:54:27;100769.81;;;19.05;73.00
65716;BME280;63484;52.054;8.518;2023-07-13T14:59:29;100766.91;;;18.80;74.57
65716;BME280;63484;52.054;8.518;2023-07-13T15:04:32;100770.16;;;18.74;72.67
65716;BME280;63484;52.054;8.518;2023-07-13T15:09:34;100769.72;;;18.78;74.11
65716;BME280;63484;52.054;8.518;2023-07-13T15:14:38;100776.44;;;19.01;74.34
65716;BME280;63484;52.054;8.518;2023-07-13T15:19:41;100770.03;;;19.21;75.74
65716;BME280;63484;52.054;8.518;2023-07-13T15:24:45;100765.25;;;19.25;74.75
65716;BME280;63484;52.054;8.518;2023-07-13T15:29:47;100762.03;;;19.21;75.27
65716;BME280;63484;52.054;8.518;2023-07-13T15:34:50;100763.75;;;19.13;76.73
65716;BME280;63484;52.054;8.518;2023-07-13T15:39:52;100764.06;;;19.00;76.19
65716;BME280;63484;52.054;8.518;2023-07-13T15:44:54;100758.75;;;18.91;77.55
65716;BME280;63484;52.054;8.518;2023-07-13T15:49:57;100749.38;;;18.77;79.19
65716;BME280;63484;52.054;8.518;2023-07-13T15:55:00;100739.97;;;18.83;80.00
65716;BME280;63484;52.054;8.518;2023-07-13T16:00:02;100754.50;;;19.07;79.99
65716;BME280;63484;52.054;8.518;2023-07-13T16:05:15;100745.72;;;19.44;76.78
65716;BME280;63484;52.054;8.518;2023-07-13T16:10:19;100735.03;;;19.71;73.63
65716;BME280;63484;52.054;8.518;2023-07-13T16:15:22;100729.78;;;19.79;73.76
65716;BME280;63484;52.054;8.518;2023-07-13T16:20:27;100738.03;;;20.03;71.37
65716;BME280;63484;52.054;8.518;2023-07-13T16:25:29;100740.47;;;20.67;69.57
65716;BME280;63484;52.054;8.518;2023-07-13T16:30:31;100742.41;;;20.82;66.58
65716;BME280;63484;52.054;8.518;2023-07-13T16:35:36;100734.44;;;20.90;65.77
65716;BME280;63484;52.054;8.518;2023-07-13T16:40:38;100733.69;;;20.80;66.46
65716;BME280;63484;52.054;8.518;2023-07-13T16:45:41;100739.31;;;20.95;65.39
65716;BME280;63484;52.054;8.518;2023-07-13T16:50:52;100738.47;;;20.68;67.04
65716;BME280;63484;52.054;8.518;2023-07-13T16:55:56;100731.06;;;20.62;68.94
65716;BME280;63484;52.054;8.518;2023-07-13T17:01:00;100733.38;;;20.83;66.13
65716;BME280;63484;52.054;8.518;2023-07-13T17:06:20;100732.34;;;21.27;64.66
65716;BME280;63484;52.054;8.518;2023-07-13T17:11:24;100735.78;;;21.45;64.29
65716;BME280;63484;52.054;8.518;2023-07-13T17:16:29;100732.59;;;21.08;65.22
65716;BME280;63484;52.054;8.518;2023-07-13T17:21:33;100732.19;;;20.52;65.36
65716;BME280;63484;52.054;8.518;2023-07-13T17:26:35;100742.25;;;20.58;66.79
65716;BME280;63484;52.054;8.518;2023-07-13T17:31:37;100746.81;;;20.48;65.99
65716;BME280;63484;52.054;8.518;2023-07-13T17:36:40;100755.72;;;20.31;67.07
65716;BME280;63484;52.054;8.518;2023-07-13T17:41:42;100739.44;;;20.42;66.57
65716;BME280;63484;52.054;8.518;2023-07-13T17:46:47;100747.38;;;20.34;67.05
65716;BME280;63484;52.054;8.518;2023-07-13T17:51:50;100749.50;;;20.13;66.90
65716;BME280;63484;52.054;8.518;2023-07-13T17:56:52;100750.69;;;20.01;68.02
65716;BME280;63484;52.054;8.518;2023-07-13T18:01:54;100766.53;;;19.85;67.08
65716;BME280;63484;52.054;8.518;2023-07-13T18:06:58;100766.66;;;19.66;69.07
65716;BME280;63484;52.054;8.518;2023-07-13T18:12:09;100778.09;;;19.49;69.33
65716;BME280;63484;52.054;8.518;2023-07-13T18:17:13;100770.28;;;19.38;70.58
65716;BME280;63484;52.054;8.518;2023-07-13T18:22:16;100774.66;;;19.19;70.72
65716;BME280;63484;52.054;8.518;2023-07-13T18:27:19;100780.03;;;19.10;72.36
65716;BME280;63484;52.054;8.518;2023-07-13T18:32:20;100783.13;;;19.05;71.95
65716;BME280;63484;52.054;8.518;2023-07-13T18:37:31;100785.09;;;19.03;72.90
65716;BME280;63484;52.054;8.518;2023-07-13T18:42:35;100778.69;;;18.96;73.84
65716;BME280;63484;52.054;8.518;2023-07-13T18:47:36;100793.56;;;18.89;75.20
65716;BME280;63484;52.054;8.518;2023-07-13T18:52:42;100787.22;;;18.90;76.85
65716;BME280;63484;52.054;8.518;2023-07-13T18:57:44;100791.47;;;18.83;78.12
65716;BME280;63484;52.054;8.518;2023-07-13T19:02:46;100785.88;;;18.67;79.31
65716;BME280;63484;52.054;8.518;2023-07-13T19:07:53;100787.41;;;18.60;80.09
65716;BME280;63484;52.054;8.518;2023-07-13T19:12:56;100781.38;;;18.58;80.74
65716;BME280;63484;52.054;8.518;2023-07-13T19:18:01;100778.59;;;18.50;80.86
65716;BME280;63484;52.054;8.518;2023-07-13T19:23:07;100779.88;;;18.46;81.11
65716;BME280;63484;52.054;8.518;2023-07-13T19:28:32;100784.72;;;18.32;81.63
65716;BME280;63484;52.054;8.518;2023-07-13T19:33:40;100786.97;;;18.27;82.26
65716;BME280;63484;52.054;8.518;2023-07-13T19:38:44;100793.25;;;18.26;83.51
65716;BME280;63484;52.054;8.518;2023-07-13T19:43:47;100793.81;;;18.20;84.15
65716;BME280;63484;52.054;8.518;2023-07-13T19:48:49;100803.19;;;18.14;84.96
65716;BME280;63484;52.054;8.518;2023-07-13T19:53:59;100807.81;;;18.12;86.19
65716;BME280;63484;52.054;8.518;2023-07-13T19:59:15;100817.59;;;18.02;87.19
65716;BME280;63484;52.054;8.518;2023-07-13T20:04:19;100817.88;;;17.89;87.69
65716;BME280;63484;52.054;8.518;2023-07-13T20:09:24;100829.59;;;17.87;88.28
65716;BME280;63484;52.054;8.518;2023-07-13T20:14:27;100822.63;;;17.86;89.32
65716;BME280;63484;52.054;8.518;2023-07-13T20:19:32;100828.22;;;17.83;89.68
65716;BME280;63484;52.054;8.518;2023-07-13T20:24:36;100832.22;;;17.77;89.30
65716;BME280;63484;52.054;8.518;2023-07-13T20:29:38;100845.66;;;17.76;90.11
65716;BME280;63484;52.054;8.518;2023-07-13T20:34:39;100843.28;;;17.73;90.33
65716;BME280;63484;52.054;8.518;2023-07-13T20:39:43;100845.22;;;17.71;90.78
65716;BME280;63484;52.054;8.518;2023-07-13T20:44:45;100853.94;;;17.73;90.13
65716;BME280;63484;52.054;8.518;2023-07-13T20:49:47;100851.28;;;17.73;91.07
65716;BME280;63484;52.054;8.518;2023-07-13T20:54:54;100856.13;;;17.68;90.30
65716;BME280;63484;52.054;8.518;2023-07-13T20:59:56;100858.34;;;17.63;89.68
65716;BME280;63484;52.054;8.518;2023-07-13T21:05:08;100865.16;;;17.56;88.92
65716;BME280;63484;52.054;8.518;2023-07-13T21:10:19;100859.94;;;17.45;87.81
65716;BME280;63484;52.054;8.518;2023-07-13T21:15:24;100865.56;;;17.31;87.22
65716;BME280;63484;52.054;8.518;2023-07-13T21:20:29;100863.94;;;17.19;88.19
65716;BME280;63484;52.054;8.518;2023-07-13T21:25:33;100859.97;;;17.04;88.77
65716;BME280;63484;52.054;8.518;2023-07-13T21:30:38;100855.53;;;16.93;89.94
65716;BME280;63484;52.054;8.518;2023-07-13T21:35:42;100850.53;;;16.79;89.96
65716;BME280;63484;52.054;8.518;2023-07-13T21:40:47;100853.13;;;16.70;90.84
65716;BME280;63484;52.054;8.518;2023-07-13T21:45:50;100864.09;;;16.65;91.43
65716;BME280;63484;52.054;8.518;2023-07-13T21:50:53;100857.50;;;16.59;92.18
65716;BME280;63484;52.054;8.518;2023-07-13T21:55:58;100862.59;;;16.51;92.86
65716;BME280;63484;52.054;8.518;2023-07-13T22:01:01;100861.75;;;16.40;93.61
65716;BME280;63484;52.054;8.518;2023-07-13T22:06:04;100859.72;;;16.32;93.01
65716;BME280;63484;52.054;8.518;2023-07-13T22:11:12;100865.41;;;16.28;93.07
65716;BME280;63484;52.054;8.518;2023-07-13T22:16:17;100868.19;;;16.26;92.79
65716;BME280;63484;52.054;8.518;2023-07-13T22:21:22;100872.88;;;16.23;93.35
65716;BME280;63484;52.054;8.518;2023-07-13T22:26:28;100870.59;;;16.18;93.17
65716;BME280;63484;52.054;8.518;2023-07-13T22:31:30;100863.66;;;16.06;93.32
65716;BME280;63484;52.054;8.518;2023-07-13T22:36:32;100861.47;;;16.00;94.44
65716;BME280;63484;52.054;8.518;2023-07-13T22:41:35;100865.34;;;15.96;94.79
65716;BME280;63484;52.054;8.518;2023-07-13T22:46:37;100867.78;;;15.88;94.40
65716;BME280;63484;52.054;8.518;2023-07-13T22:51:38;100858.59;;;15.81;95.14
65716;BME280;63484;52.054;8.518;2023-07-13T22:56:44;100869.44;;;15.78;95.94
65716;BME280;63484;52.054;8.518;2023-07-13T23:01:46;100870.53;;;15.76;96.67
65716;BME280;63484;52.054;8.518;2023-07-13T23:06:48;100870.41;;;15.66;96.96
65716;BME280;63484;52.054;8.518;2023-07-13T23:11:54;100864.63;;;15.61;97.11
65716;BME280;63484;52.054;8.518;2023-07-13T23:16:56;100863.78;;;15.61;96.67
65716;BME280;63484;52.054;8.518;2023-07-13T23:21:59;100867.88;;;15.65;95.88
65716;BME280;63484;52.054;8.518;2023-07-13T23:27:03;100867.16;;;15.63;95.75
65716;BME280;63484;52.054;8.518;2023-07-13T23:32:08;100854.25;;;15.58;95.94
65716;BME280;63484;52.054;8.518;2023-07-13T23:37:15;100848.34;;;15.55;95.92
65716;BME280;63484;52.054;8.518;2023-07-13T23:42:19;100855.47;;;15.54;95.85
65716;BME280;63484;52.054;8.518;2023-07-13T23:47:21;100861.47;;;15.45;97.34
65716;BME280;63484;52.054;8.518;2023-07-13T23:52:22;100868.19;;;15.38;97.96
65716;BME280;63484;52.054;8.518;2023-07-13T23:57:25;100862.78;;;15.28;98.53
